Marco Island, Florida
Current Conditions -  °F | °C
As of 2:53 PM on Thursday 23 Oct 2014 (Local Time) from KAPF Reporting Station
Few Clouds Few Clouds  
Wind Chill: 84°   Ceiling: Unl
Heat Index: 88°   Visibility: 10mi
Dew Point: 70°   Wind: 18mph
Humidity: 63%   Direction: 40°NE
Pressure: 29.86"   Gusts: 24mph
Location:  25.97°N, 81.73°W
Report Text: KAPF 231853Z 04016G21KT 10SM FEW026 29/21 A2986 RMK AO2 SLP112 T02890211
Loading
Personal Weather Stations






























Interactive Weather Map
Tropical Storm Tracking
New forecast layout! Learn more

10-Day Weather Forecast

Advertisements
Track Severe Weather on mobile